Waupaca, Wisconsin
Current Conditions -  °F | °C
As of 7:55 PM on Monday 24 Nov 2014 (Local Time) from KPCZ Reporting Station
Light Snow Light Snow  
Wind Chill: 21°   Ceiling: 1400
Heat Index: 29°   Visibility: 2mi
Dew Point: 27°   Wind: 9mph
Humidity: 91%   Direction: 280°W
Pressure: 29.56"   Gusts: NA
Location:  44.36°N, 89.09°W
Report Text: KPCZ 250155Z AUTO 28008KT 2SM -SN SCT007 OVC014 M01/M03 A2956 RMK AO2 T10151028
Loading
Personal Weather Stations






























Interactive Weather Map New forecast layout! Learn more

10-Day Weather Forecast

Advertisements
Track Severe Weather on mobile